Kezdőlap
METAR-TAF:

METAR-TAF

Repülőterek :

Mikolajiv, Ukrajna

földrajzi szélesség: 47-03-29N, földrajzi hosszúság: 031-55-15E, magasság: 56 m

Jelenlegi meteorológiai megfigyelések

A jelentés 48 perccel ezelõtt készült, 05:00 UTC
Déli szél 4 kt
Hőmérséklet 9°C
Páratartalom 57%
Légköri nyomás 1029 hPa
Látótávolság 10 km, vagy több
felhőtlen 1500 m magasságban, és nincs gomolyfelhõ

METAR: UKON 240500Z 18002MPS CAVOK 09/01 Q1029 NOSIG

Idő: 08:48 (05:48 UTC)

Előrejelzés

A jelentés 45 perccel ezelõtt készült, 05:03 UTC
Az előrejelzés 24-én 06 óra UTC és 24-én 15 óra UTC között érvényes
Dél-délkeleti szél 6 kt
Látótávolság 10 km, vagy több
Szórványos felhőzet 2500 lábon, Cumulonimbus.

TAF: UKON 240503Z 2406/2415 16003MPS 9999 SCT025CB

Meteorológiai megfigyelések és előrejelzések több, mint 4000 repülőtéren (METAR és TAF jelentéseket).

A térképen piros és sárga pontok jelzik az elérhető meteorológiai állomásokat.

Mozgassa az egeret a pont fölött, hogy megjelenjen az állomás neve.

Azután kattintson az időjárási megfigyelések és előrejelzések megtekintéséhez.

A térkép megváltoztatása: kattintson a fekete keresztel jelölt zöld gombra ráközelítéshez, a vonallal jelölt zöld gombra távolításhoz, vagy a zöld nyilakra a szomszédos térképek eléréséhez.


METAR-TAF: